Terminal Aerodrome Forecast
Issued by NWS

Home | Current Version | Previous Version | Text Only | Print | Product List | Glossary On
Versions: 1 2 3 4 5 6 7 8 9 10 11 12 13 14 15 16 17
000
FTUS46 KEKA 181137
TAFCEC
TAF
KCEC 181137Z 1812/1912 15016G23KT P6SM SCT025 BKN040
     FM190000 17018G28KT 6SM -RA BR SCT035 OVC050
     FM190600 18010KT 4SM RA BKN030 OVC040
     FM190900 18008KT 6SM -SHRA SCT030 BKN050=

USA.gov is the U.S. government's official web portal to all federal, state and local government web resources and services.